CheckWX is a tool to help pilots better visualize weather data.  It is not intended as a substitute for an official pre-flight weather briefing.

01:05:38 UTC

EGPH METAR
Edinburgh Airport
Edinburgh, United Kingdom
Current

46 mins ago

EGPH 170020Z 25008KT CAVOK 10/08 Q1022
Observed
Sep-17 @ 00:20 UTC
Wind
  • 250° at 8 KTS
Visibility
10,000+ meters
Flight Rules
VFR
Cloud Levels
  • Clear skies
Temperature
10°C / 50°F
Dewpoint
C / 46°F
Humidity
88%
Altimeter
30.18" Hg
Pressure
1021.92 hPa
Previous

1 hour ago

EGPH 162350Z 25008KT 9999 FEW028 BKN044 10/08 Q1022
Observed
Sep-16 @ 23:50 UTC
Wind
  • 250° at 8 KTS
Visibility
10,000+ meters
Flight Rules
VFR
Cloud Levels
  • Few at 2,800' AGL
  • Broken at 4,400' AGL
Temperature
10°C / 50°F
Dewpoint
C / 46°F
Humidity
88%
Altimeter
30.18" Hg
Pressure
1021.92 hPa
Previous

2 hours ago

EGPH 162320Z 24007KT 9999 SCT040 10/08 Q1022
Observed
Sep-16 @ 23:20 UTC
Wind
  • 240° at 7 KTS
Visibility
10,000+ meters
Flight Rules
VFR
Cloud Levels
  • Scattered at 4,000' AGL
Temperature
10°C / 50°F
Dewpoint
C / 46°F
Humidity
88%
Altimeter
30.18" Hg
Pressure
1021.92 hPa